Time;durP1;ratioP1;P1;durP2;ratioP2;P2;SDS_P1;SDS_P2;PMS_P1;PMS_P2;Temp;Humidity;BMP_temperature;BMP_pressure;BME280_temperature;BME280_humidity;BME280_pressure;Samples;Min_cycle;Max_cycle;Signal;HPM_P1;HPM_P2
2021/10/12 00:00:25;;;;;;;4.78;2.50;;;9.70;69.90;;;;;;4914513;29;20399;-81
2021/10/12 00:02:51;;;;;;;5.03;2.95;;;9.70;69.90;;;;;;4931374;29;20155;-81
2021/10/12 00:05:17;;;;;;;6.07;2.47;;;9.80;70.10;;;;;;4931373;29;20106;-82
2021/10/12 00:07:44;;;;;;;6.15;3.30;;;9.70;70.00;;;;;;4930955;29;20502;-81
2021/10/12 00:10:10;;;;;;;4.93;3.35;;;9.70;70.00;;;;;;4930414;29;20031;-82
2021/10/12 00:12:36;;;;;;;5.05;2.92;;;9.70;70.00;;;;;;4930937;29;20036;-82
2021/10/12 00:15:04;;;;;;;3.28;2.28;;;9.70;70.10;;;;;;4931529;29;20112;-82
2021/10/12 00:17:31;;;;;;;3.78;2.92;;;9.70;70.10;;;;;;4930638;29;20038;-82
2021/10/12 00:19:57;;;;;;;4.13;2.40;;;9.70;70.20;;;;;;4930606;29;20039;-82
2021/10/12 00:22:23;;;;;;;5.40;2.92;;;9.70;70.20;;;;;;4913868;29;20118;-82
2021/10/12 00:24:49;;;;;;;5.03;2.85;;;9.70;70.30;;;;;;4930638;29;20126;-82
2021/10/12 00:27:15;;;;;;;7.07;2.88;;;9.70;70.40;;;;;;4914247;29;20116;-81
2021/10/12 00:29:41;;;;;;;5.10;3.28;;;9.60;70.20;;;;;;4917505;29;20123;-81
2021/10/12 00:32:08;;;;;;;4.93;3.10;;;9.70;70.50;;;;;;4911914;29;20490;-81
2021/10/12 00:34:34;;;;;;;5.45;3.10;;;9.60;70.40;;;;;;4911422;29;20072;-81
2021/10/12 00:37:01;;;;;;;5.65;2.72;;;9.60;70.40;;;;;;4911607;29;20132;-82
2021/10/12 00:39:27;;;;;;;8.48;3.35;;;9.60;70.50;;;;;;4894185;29;20032;-82
2021/10/12 00:41:58;;;;;;;5.88;3.08;;;9.60;70.50;;;;;;4911667;29;20039;-82
2021/10/12 00:44:26;;;;;;;5.63;2.80;;;9.60;70.60;;;;;;4894155;29;20043;-81
2021/10/12 00:46:52;;;;;;;6.93;2.60;;;9.60;70.60;;;;;;4894873;29;20263;-82
2021/10/12 00:49:18;;;;;;;6.03;2.70;;;9.60;70.70;;;;;;4911772;29;20063;-84
2021/10/12 00:51:45;;;;;;;6.72;3.85;;;9.60;70.70;;;;;;4911363;29;20031;-82
2021/10/12 00:54:11;;;;;;;6.78;2.88;;;9.50;70.50;;;;;;4924226;29;20039;-81
2021/10/12 00:56:37;;;;;;;5.03;2.40;;;9.50;70.50;;;;;;4929840;29;20039;-81
2021/10/12 00:59:05;;;;;;;3.70;2.58;;;9.50;70.50;;;;;;4929116;29;20107;-81
2021/10/12 01:01:31;;;;;;;6.22;2.95;;;9.50;70.50;;;;;;4930600;29;20027;-81
2021/10/12 01:03:58;;;;;;;6.45;2.63;;;9.40;70.30;;;;;;4930088;29;20031;-80
2021/10/12 01:06:25;;;;;;;7.90;2.97;;;9.40;70.30;;;;;;4930542;29;20048;-79
2021/10/12 01:08:52;;;;;;;8.48;4.63;;;9.40;70.40;;;;;;4912447;29;20042;-79
2021/10/12 01:11:20;;;;;;;6.35;3.67;;;9.40;70.40;;;;;;4928734;29;20479;-79
2021/10/12 01:13:46;;;;;;;4.10;3.03;;;9.40;70.40;;;;;;4912296;29;20051;-82
2021/10/12 01:16:15;;;;;;;5.60;3.72;;;9.30;70.30;;;;;;4929849;29;20039;-81
2021/10/12 01:18:53;;;;;;;5.82;3.65;;;9.30;70.30;;;;;;4912584;29;20158;-82
2021/10/12 01:21:19;;;;;;;5.20;3.13;;;9.30;70.40;;;;;;4930072;29;20055;-82
2021/10/12 01:23:45;;;;;;;6.28;3.13;;;9.30;70.40;;;;;;4912543;29;20078;-81
2021/10/12 01:26:11;;;;;;;7.25;3.85;;;9.30;70.40;;;;;;4929300;29;20147;-81
2021/10/12 01:28:37;;;;;;;8.60;3.58;;;9.20;70.30;;;;;;4912622;29;20102;-81
2021/10/12 01:31:04;;;;;;;5.18;3.13;;;9.20;70.30;;;;;;4927450;29;20141;-80
2021/10/12 01:33:30;;;;;;;6.00;3.35;;;9.20;70.30;;;;;;4916764;29;20028;-80
2021/10/12 01:35:56;;;;;;;9.52;3.60;;;9.20;70.30;;;;;;4910683;29;20035;-80
2021/10/12 01:38:21;;;;;;;6.38;3.25;;;9.20;70.90;;;;;;4904553;29;20463;-80
2021/10/12 01:40:47;;;;;;;6.28;3.40;;;9.10;70.30;;;;;;4911364;29;20051;-80
2021/10/12 01:43:13;;;;;;;6.47;3.08;;;9.10;70.30;;;;;;4911240;29;20392;-82
2021/10/12 01:45:39;;;;;;;7.10;3.58;;;9.10;70.40;;;;;;4898291;29;20019;-82
2021/10/12 01:48:05;;;;;;;9.93;3.13;;;9.10;70.40;;;;;;4917492;29;20050;-80
2021/10/12 01:50:31;;;;;;;8.38;3.38;;;9.00;70.20;;;;;;4921047;29;20060;-79
2021/10/12 01:52:57;;;;;;;12.55;3.85;;;9.00;70.30;;;;;;4926701;29;20492;-79
2021/10/12 01:55:24;;;;;;;5.32;3.55;;;9.00;70.30;;;;;;4923883;29;20070;-81
2021/10/12 01:57:50;;;;;;;8.20;4.05;;;9.00;70.40;;;;;;4933772;29;20119;-82
2021/10/12 02:00:17;;;;;;;7.45;3.28;;;8.90;70.30;;;;;;4933703;29;20031;-81
2021/10/12 02:02:43;;;;;;;4.78;3.08;;;8.90;70.90;;;;;;4933243;29;20494;-81
2021/10/12 02:05:09;;;;;;;6.90;3.95;;;8.90;70.40;;;;;;4934149;29;20044;-80
2021/10/12 02:07:34;;;;;;;9.55;4.00;;;8.90;70.40;;;;;;4933269;29;20023;-80
2021/10/12 02:10:00;;;;;;;7.25;3.72;;;8.90;70.50;;;;;;4934037;29;20031;-80
2021/10/12 02:12:26;;;;;;;8.55;3.63;;;8.90;70.50;;;;;;4933916;29;20082;-81
2021/10/12 02:14:52;;;;;;;7.88;3.45;;;8.90;70.60;;;;;;4934113;29;20044;-82
2021/10/12 02:17:18;;;;;;;13.45;3.30;;;8.90;70.70;;;;;;4916699;29;20468;-82
2021/10/12 02:19:44;;;;;;;10.07;4.28;;;8.90;70.70;;;;;;4933575;29;20039;-81
2021/10/12 02:22:10;;;;;;;6.20;3.53;;;8.90;70.80;;;;;;4932509;29;20079;-82
2021/10/12 02:24:36;;;;;;;7.45;4.95;;;8.90;70.80;;;;;;4916407;29;20044;-81
2021/10/12 02:27:02;;;;;;;4.78;2.67;;;8.90;70.90;;;;;;4933500;29;20044;-81
2021/10/12 02:29:28;;;;;;;5.18;2.90;;;8.90;70.90;;;;;;4933564;29;20032;-82
2021/10/12 02:31:54;;;;;;;3.67;2.50;;;8.80;70.80;;;;;;4916460;29;20479;-82
2021/10/12 02:34:20;;;;;;;5.32;2.50;;;8.80;70.80;;;;;;4916563;29;20040;-82
2021/10/12 02:36:46;;;;;;;4.78;2.35;;;8.80;70.80;;;;;;4916504;29;20050;-82
2021/10/12 02:39:12;;;;;;;2.72;2.13;;;8.80;70.80;;;;;;4900484;29;20036;-80
2021/10/12 02:41:38;;;;;;;3.10;2.33;;;8.80;70.80;;;;;;4933627;29;20388;-82
2021/10/12 02:44:04;;;;;;;4.13;2.45;;;8.80;70.80;;;;;;4916090;29;20091;-81
2021/10/12 02:46:30;;;;;;;3.58;2.35;;;8.80;70.80;;;;;;4933392;29;20043;-81
2021/10/12 02:48:56;;;;;;;6.97;2.65;;;8.80;70.80;;;;;;4916310;29;20028;-81
2021/10/12 02:51:22;;;;;;;5.70;2.83;;;8.80;70.80;;;;;;4916468;29;20047;-81
2021/10/12 02:53:48;;;;;;;4.35;2.80;;;8.70;70.60;;;;;;4933582;29;20040;-81
2021/10/12 02:56:14;;;;;;;4.40;2.90;;;8.70;70.50;;;;;;4933037;29;20039;-80
2021/10/12 02:58:40;;;;;;;3.42;2.92;;;8.70;70.50;;;;;;4916485;29;20032;-80
2021/10/12 03:01:06;;;;;;;5.85;3.58;;;8.70;70.50;;;;;;4933043;29;20067;-81
2021/10/12 03:03:32;;;;;;;3.53;2.53;;;8.70;71.00;;;;;;4916085;29;20031;-80
2021/10/12 03:05:58;;;;;;;2.78;2.22;;;8.60;70.30;;;;;;4900857;29;20028;-80
2021/10/12 03:08:24;;;;;;;2.92;2.30;;;8.60;70.30;;;;;;4933137;29;20599;-82
2021/10/12 03:10:49;;;;;;;3.47;2.53;;;8.60;70.30;;;;;;4916305;29;20067;-81
2021/10/12 03:13:15;;;;;;;6.00;2.70;;;8.60;70.30;;;;;;4933073;29;20024;-79
2021/10/12 03:15:43;;;;;;;3.38;2.60;;;8.50;70.20;;;;;;4931757;29;20040;-81
2021/10/12 03:18:09;;;;;;;4.28;3.00;;;8.50;70.20;;;;;;4933161;29;20083;-81
2021/10/12 03:20:36;;;;;;;5.07;2.78;;;8.50;70.30;;;;;;4934833;29;20093;-81
2021/10/12 03:23:02;;;;;;;5.25;2.47;;;8.50;70.30;;;;;;4919461;29;20064;-81
2021/10/12 03:25:28;;;;;;;4.60;2.58;;;8.40;70.10;;;;;;4916282;29;20162;-79
2021/10/12 03:27:54;;;;;;;7.00;2.80;;;8.40;70.20;;;;;;4917299;29;20140;-81
2021/10/12 03:30:20;;;;;;;3.15;2.67;;;8.40;70.20;;;;;;4917183;29;20044;-80
2021/10/12 03:32:46;;;;;;;5.97;3.17;;;8.40;70.30;;;;;;4917771;29;20051;-80
2021/10/12 03:35:15;;;;;;;7.00;3.50;;;8.40;70.30;;;;;;4911874;29;20052;-79
2021/10/12 03:37:41;;;;;;;6.60;3.85;;;8.40;70.40;;;;;;4909408;29;20372;-79
2021/10/12 03:40:08;;;;;;;8.95;3.72;;;8.40;70.50;;;;;;4908350;29;20037;-79
2021/10/12 03:42:34;;;;;;;7.43;3.33;;;8.40;70.50;;;;;;4906065;29;20392;-79
2021/10/12 03:45:00;;;;;;;5.70;2.83;;;8.40;70.50;;;;;;4917037;29;20043;-80
2021/10/12 03:47:26;;;;;;;3.45;2.47;;;8.40;70.50;;;;;;4917168;29;20036;-81
2021/10/12 03:49:52;;;;;;;5.35;2.35;;;8.40;70.50;;;;;;4909386;29;20039;-80
2021/10/12 03:52:18;;;;;;;5.45;2.80;;;8.40;70.50;;;;;;4917231;29;20483;-80
2021/10/12 03:54:43;;;;;;;4.60;2.53;;;8.40;70.40;;;;;;4916831;29;20492;-80
2021/10/12 03:57:09;;;;;;;5.70;2.50;;;8.30;70.20;;;;;;4916840;29;20028;-80
2021/10/12 03:59:35;;;;;;;6.07;2.90;;;8.30;70.20;;;;;;4916076;29;20396;-80
2021/10/12 04:02:01;;;;;;;6.35;3.00;;;8.30;70.10;;;;;;4900259;29;20036;-79
2021/10/12 04:04:27;;;;;;;7.45;2.80;;;8.30;70.10;;;;;;4916568;29;20028;-80
2021/10/12 04:06:53;;;;;;;6.78;3.67;;;8.20;69.90;;;;;;4916606;29;20127;-80
2021/10/12 04:09:19;;;;;;;5.75;3.42;;;8.20;70.00;;;;;;4917309;29;20092;-80
2021/10/12 04:11:45;;;;;;;4.60;2.95;;;8.20;70.00;;;;;;4916506;29;20111;-79
2021/10/12 04:14:11;;;;;;;8.93;3.75;;;8.20;70.00;;;;;;4916483;29;20115;-81
2021/10/12 04:16:37;;;;;;;4.70;3.58;;;8.10;69.80;;;;;;4916726;29;20357;-81
2021/10/12 04:19:03;;;;;;;7.93;3.88;;;8.10;69.80;;;;;;4899844;29;20044;-80
2021/10/12 04:21:29;;;;;;;7.18;3.80;;;8.10;69.80;;;;;;4916721;29;20440;-80
2021/10/12 04:23:55;;;;;;;6.47;3.67;;;8.10;69.90;;;;;;4916515;29;20182;-79
2021/10/12 04:26:23;;;;;;;7.75;4.05;;;8.10;69.90;;;;;;4899323;29;20040;-82
2021/10/12 04:28:49;;;;;;;5.63;3.75;;;8.10;70.00;;;;;;4899552;29;20040;-82
2021/10/12 04:31:15;;;;;;;7.80;4.35;;;8.10;70.00;;;;;;4914768;29;20037;-83
2021/10/12 04:33:41;;;;;;;5.93;4.60;;;8.00;69.80;;;;;;4916562;29;20476;-83
2021/10/12 04:36:07;;;;;;;10.63;5.63;;;8.00;69.90;;;;;;4916263;29;20055;-83
2021/10/12 04:38:33;;;;;;;10.25;5.97;;;8.00;69.90;;;;;;4909820;29;20688;-82
2021/10/12 04:41:00;;;;;;;10.20;5.50;;;8.00;69.90;;;;;;4901160;29;20029;-83
2021/10/12 04:43:26;;;;;;;10.05;5.90;;;8.00;69.90;;;;;;4896091;29;20037;-84
2021/10/12 04:45:52;;;;;;;9.70;6.00;;;8.00;70.00;;;;;;4897232;29;20040;-82
2021/10/12 04:48:18;;;;;;;12.50;6.65;;;8.00;70.00;;;;;;4903268;29;20035;-80
2021/10/12 04:50:44;;;;;;;13.55;7.90;;;7.90;69.90;;;;;;4912296;29;20035;-81
2021/10/12 04:53:10;;;;;;;11.07;6.47;;;7.90;70.40;;;;;;4913058;29;20114;-83
2021/10/12 04:55:40;;;;;;;11.68;7.28;;;7.90;69.90;;;;;;4912354;29;20044;-77
2021/10/12 04:58:08;;;;;;;12.90;7.65;;;7.90;70.00;;;;;;4907156;29;20032;-82
2021/10/12 05:00:36;;;;;;;13.10;7.80;;;7.90;70.00;;;;;;4898605;29;20028;-82
2021/10/12 05:03:02;;;;;;;9.82;6.85;;;7.90;70.10;;;;;;4897623;29;20079;-82
2021/10/12 05:05:28;;;;;;;12.32;8.40;;;7.90;70.10;;;;;;4900636;29;20036;-79
2021/10/12 05:07:55;;;;;;;13.00;6.95;;;8.00;70.30;;;;;;4900689;29;20153;-81
2021/10/12 05:10:21;;;;;;;11.93;6.65;;;7.90;70.20;;;;;;4903573;29;20060;-80
2021/10/12 05:12:47;;;;;;;10.63;6.88;;;7.90;70.70;;;;;;4897354;29;20391;-81
2021/10/12 05:15:20;;;;;;;14.45;6.30;;;7.90;70.30;;;;;;4893665;29;20044;-80
2021/10/12 05:17:48;;;;;;;11.35;6.60;;;7.90;70.30;;;;;;4881599;29;20108;-82
2021/10/12 05:20:15;;;;;;;10.05;6.65;;;7.90;70.40;;;;;;4906574;29;20038;-83
2021/10/12 05:22:41;;;;;;;8.30;6.30;;;8.00;70.80;;;;;;4897446;29;20040;-81
2021/10/12 05:25:08;;;;;;;10.32;7.20;;;8.00;71.00;;;;;;4910602;29;20044;-84
2021/10/12 05:27:36;;;;;;;11.73;7.07;;;8.00;71.10;;;;;;4909191;29;20048;-81
2021/10/12 05:30:05;;;;;;;10.50;7.38;;;8.10;71.50;;;;;;4893683;29;20043;-83
2021/10/12 05:32:31;;;;;;;12.27;8.15;;;8.10;71.60;;;;;;4901061;29;20107;-88
2021/10/12 05:34:59;;;;;;;12.02;7.32;;;8.20;71.90;;;;;;4907920;29;20131;-79
2021/10/12 05:37:25;;;;;;;11.98;7.40;;;8.20;72.00;;;;;;4893808;29;20028;-88
2021/10/12 05:39:51;;;;;;;11.32;8.20;;;8.30;72.30;;;;;;4911697;29;20107;-88
2021/10/12 05:42:16;;;;;;;11.25;7.45;;;8.30;72.40;;;;;;4908622;29;20127;-87
2021/10/12 05:44:43;;;;;;;8.75;6.95;;;8.30;72.50;;;;;;4899625;29;20167;-89
2021/10/12 05:47:09;;;;;;;8.98;7.07;;;8.30;72.50;;;;;;4885790;29;20032;-90
2021/10/12 05:49:37;;;;;;;9.75;6.82;;;8.40;72.70;;;;;;4909074;29;20092;-84
2021/10/12 05:52:04;;;;;;;10.07;7.13;;;8.40;72.80;;;;;;4913717;29;20035;-86
2021/10/12 05:54:32;;;;;;;8.20;6.75;;;8.40;72.80;;;;;;4913424;29;20044;-86
2021/10/12 05:57:08;;;;;;;9.77;7.05;;;8.40;72.90;;;;;;4902801;29;20032;-84
2021/10/12 05:59:34;;;;;;;11.52;7.35;;;8.40;72.90;;;;;;4883760;29;20099;-85
2021/10/12 06:02:00;;;;;;;8.30;6.07;;;8.40;72.90;;;;;;4912407;29;20043;-83
2021/10/12 06:04:26;;;;;;;7.28;5.97;;;8.40;73.00;;;;;;4914369;29;20068;-88
2021/10/12 06:06:55;;;;;;;10.38;7.90;;;8.40;73.00;;;;;;4903809;29;20032;-82
2021/10/12 06:09:21;;;;;;;8.55;6.40;;;8.40;73.10;;;;;;4908791;29;20020;-80
2021/10/12 06:11:47;;;;;;;9.82;6.75;;;8.40;73.10;;;;;;4902542;29;20439;-88
2021/10/12 06:14:15;;;;;;;8.68;6.57;;;8.40;73.20;;;;;;4910491;29;20044;-85
2021/10/12 06:16:40;;;;;;;10.00;6.40;;;8.50;73.40;;;;;;4906700;29;20035;-86
2021/10/12 06:19:06;;;;;;;8.82;6.55;;;8.50;73.40;;;;;;4907743;29;20036;-87
2021/10/12 06:21:32;;;;;;;9.23;6.63;;;8.50;73.40;;;;;;4894583;29;20035;-80
2021/10/12 06:23:58;;;;;;;11.00;6.97;;;8.40;73.30;;;;;;4906360;29;20036;-82
2021/10/12 06:26:24;;;;;;;9.35;7.18;;;8.50;73.50;;;;;;4893129;29;20061;-82
2021/10/12 06:28:50;;;;;;;8.75;6.68;;;8.50;73.50;;;;;;4886283;29;20030;-83
2021/10/12 06:31:16;;;;;;;8.95;6.55;;;8.60;73.70;;;;;;4893027;29;20043;-83
2021/10/12 06:33:42;;;;;;;11.15;7.28;;;8.60;73.80;;;;;;4910303;29;20032;-84
2021/10/12 06:36:08;;;;;;;12.40;8.00;;;8.60;73.80;;;;;;4893668;29;20095;-84
2021/10/12 06:38:34;;;;;;;10.90;7.97;;;8.60;73.80;;;;;;4899295;29;20033;-86
2021/10/12 06:41:01;;;;;;;12.55;8.88;;;8.60;73.90;;;;;;4891719;29;20119;-85
2021/10/12 06:43:27;;;;;;;9.75;7.65;;;8.60;73.90;;;;;;4891133;29;20124;-86
2021/10/12 06:45:53;;;;;;;10.73;7.50;;;8.60;73.90;;;;;;4874510;29;20523;-83
2021/10/12 06:48:19;;;;;;;10.60;7.45;;;8.70;74.10;;;;;;4874002;29;20466;-82
2021/10/12 06:50:45;;;;;;;10.52;7.57;;;8.70;74.10;;;;;;4891014;29;20509;-81
2021/10/12 06:53:11;;;;;;;11.85;7.20;;;8.80;74.30;;;;;;4895251;29;20032;-83
2021/10/12 06:55:37;;;;;;;11.45;8.18;;;8.80;74.30;;;;;;4911877;29;20074;-81
2021/10/12 06:58:03;;;;;;;9.10;6.75;;;8.80;74.30;;;;;;4913294;29;20040;-83
2021/10/12 07:00:29;;;;;;;9.88;7.47;;;8.80;74.30;;;;;;4896710;29;20562;-84
2021/10/12 07:02:55;;;;;;;10.05;7.20;;;8.90;74.50;;;;;;4903686;29;20365;-82
2021/10/12 07:05:21;;;;;;;13.15;7.82;;;8.90;74.50;;;;;;4893200;29;20032;-85
2021/10/12 07:07:47;;;;;;;10.80;7.68;;;9.00;74.60;;;;;;4893302;29;20460;-83
2021/10/12 07:10:14;;;;;;;11.57;8.35;;;9.00;74.60;;;;;;4895511;29;20123;-86
2021/10/12 07:12:40;;;;;;;10.43;8.07;;;9.10;74.80;;;;;;4884190;29;20032;-85
2021/10/12 07:15:07;;;;;;;10.50;8.25;;;9.20;74.90;;;;;;4914724;29;20527;-84
2021/10/12 07:17:33;;;;;;;10.15;6.88;;;9.30;75.00;;;;;;4913358;29;20445;-82
2021/10/12 07:20:00;;;;;;;9.77;7.25;;;9.30;75.00;;;;;;4911954;29;20515;-83
2021/10/12 07:22:26;;;;;;;10.13;7.50;;;9.40;75.10;;;;;;4892181;29;20210;-85
2021/10/12 07:24:54;;;;;;;9.88;7.55;;;9.40;75.10;;;;;;4878967;29;20047;-83
2021/10/12 07:27:21;;;;;;;11.25;7.57;;;9.50;75.20;;;;;;4894502;29;20060;-82
2021/10/12 07:29:51;;;;;;;10.77;7.47;;;9.50;75.10;;;;;;4894426;29;20044;-82
2021/10/12 07:32:18;;;;;;;9.98;6.90;;;9.60;75.30;;;;;;4863107;29;20039;-86
2021/10/12 07:34:44;;;;;;;10.25;7.35;;;9.60;75.20;;;;;;4904942;29;20083;-85
2021/10/12 07:37:11;;;;;;;9.18;7.30;;;9.70;75.30;;;;;;4906046;29;20032;-86
2021/10/12 07:39:41;;;;;;;8.65;7.50;;;9.70;75.30;;;;;;4902586;29;20032;-91
2021/10/12 07:42:11;;;;;;;8.77;7.50;;;9.80;75.40;;;;;;4886716;29;20052;-87
2021/10/12 07:44:39;;;;;;;10.10;6.95;;;9.90;75.50;;;;;;4908650;29;20043;-89
2021/10/12 07:47:06;;;;;;;10.65;7.28;;;9.90;75.40;;;;;;4914130;29;20028;-83
2021/10/12 07:49:34;;;;;;;10.38;7.38;;;10.00;75.50;;;;;;4903375;29;20060;-91
2021/10/12 07:52:06;;;;;;;11.02;7.72;;;10.10;75.60;;;;;;4905755;29;20027;-80
2021/10/12 07:54:41;;;;;;;10.07;7.43;;;10.20;75.70;;;;;;4895939;29;20100;-80
2021/10/12 07:57:07;;;;;;;11.20;6.38;;;10.20;75.60;;;;;;4895119;29;20044;-84
2021/10/12 07:59:33;;;;;;;10.38;7.32;;;10.30;75.70;;;;;;4908031;29;20102;-86
2021/10/12 08:01:59;;;;;;;10.75;7.30;;;10.30;75.60;;;;;;4902953;29;20484;-83
2021/10/12 08:04:25;;;;;;;8.52;6.93;;;10.40;75.70;;;;;;4899344;29;20111;-82
2021/10/12 08:06:51;;;;;;;9.73;7.03;;;10.40;75.60;;;;;;4908196;29;20125;-82
2021/10/12 08:09:17;;;;;;;10.25;8.02;;;10.50;75.70;;;;;;4895474;29;20059;-81
2021/10/12 08:11:43;;;;;;;11.98;7.13;;;10.50;75.60;;;;;;4893774;29;20139;-86
2021/10/12 08:14:11;;;;;;;8.73;6.78;;;10.70;75.90;;;;;;4882529;29;20453;-81
2021/10/12 08:16:37;;;;;;;9.00;7.20;;;10.70;75.80;;;;;;4887582;29;20035;-82
2021/10/12 08:19:06;;;;;;;10.10;8.00;;;10.70;75.80;;;;;;4907197;29;20045;-81
2021/10/12 08:21:33;;;;;;;9.68;7.28;;;10.80;75.90;;;;;;4879124;29;20038;-81
2021/10/12 08:24:02;;;;;;;11.85;7.68;;;10.90;76.00;;;;;;4896000;29;20410;-84
2021/10/12 08:26:28;;;;;;;10.05;7.32;;;10.90;75.90;;;;;;4911200;29;20770;-80
2021/10/12 08:28:58;;;;;;;13.60;9.30;;;11.00;76.10;;;;;;4912324;29;20032;-90
2021/10/12 08:31:24;;;;;;;11.85;9.35;;;11.00;76.40;;;;;;4898488;29;20043;-88
2021/10/12 08:33:51;;;;;;;12.40;9.07;;;11.20;77.00;;;;;;4913714;29;20459;-85
2021/10/12 08:36:17;;;;;;;12.02;8.65;;;11.30;77.20;;;;;;4912143;29;20040;-85
2021/10/12 08:38:44;;;;;;;10.77;8.48;;;11.50;77.50;;;;;;4911116;29;20318;-84
2021/10/12 08:41:11;;;;;;;10.35;6.95;;;11.60;77.60;;;;;;4907805;29;20035;-80
2021/10/12 08:43:38;;;;;;;9.68;7.47;;;11.60;77.40;;;;;;4905480;29;20396;-83
2021/10/12 08:46:06;;;;;;;8.05;6.72;;;11.70;77.50;;;;;;4898018;29;20558;-84
2021/10/12 08:48:33;;;;;;;9.48;7.07;;;11.70;77.30;;;;;;4896060;29;20060;-82
2021/10/12 08:51:01;;;;;;;9.57;7.32;;;11.80;77.40;;;;;;4911693;29;20131;-83
2021/10/12 08:53:29;;;;;;;11.82;7.18;;;11.80;77.30;;;;;;4894881;29;20071;-84
2021/10/12 08:55:58;;;;;;;8.85;6.88;;;11.80;77.30;;;;;;4911947;29;20051;-82
2021/10/12 08:58:24;;;;;;;10.85;7.07;;;11.80;77.30;;;;;;4903358;29;20123;-85
2021/10/12 09:01:09;;;;;;;16.02;8.90;;;11.80;77.20;;;;;;4892936;29;20188;-85
2021/10/12 09:03:48;;;;;;;8.23;6.53;;;11.80;77.20;;;;;;4877391;29;20199;-87
2021/10/12 09:06:34;;;;;;;9.15;7.40;;;11.90;77.30;;;;;;4861583;29;20046;-83
2021/10/12 09:09:04;;;;;;;9.18;6.70;;;11.90;77.20;;;;;;4888876;29;20380;-85
2021/10/12 09:11:32;;;;;;;9.30;6.57;;;11.90;77.20;;;;;;4911674;29;20024;-84
2021/10/12 09:14:11;;;;;;;10.60;6.40;;;11.90;77.10;;;;;;4911773;29;20134;-86
2021/10/12 09:16:43;;;;;;;10.52;6.55;;;11.90;77.10;;;;;;4912010;29;20563;-86
2021/10/12 09:19:17;;;;;;;11.32;5.97;;;11.90;77.10;;;;;;4911047;29;20119;-81
2021/10/12 09:21:49;;;;;;;8.05;6.43;;;11.90;77.10;;;;;;4911633;29;20044;-87
2021/10/12 09:24:17;;;;;;;8.70;6.18;;;12.00;77.30;;;;;;4912528;29;20036;-90
2021/10/12 09:26:45;;;;;;;8.90;5.55;;;11.90;77.10;;;;;;4897924;29;20131;-84
2021/10/12 09:29:31;;;;;;;9.82;6.03;;;12.00;77.30;;;;;;4862619;29;20037;-84
2021/10/12 09:31:58;;;;;;;9.55;5.20;;;12.10;77.50;;;;;;4878310;29;20890;-84
2021/10/12 09:34:28;;;;;;;7.75;5.72;;;12.10;77.40;;;;;;4911395;29;20046;-87
2021/10/12 09:36:55;;;;;;;8.40;6.03;;;12.20;77.50;;;;;;4912393;29;20118;-91
2021/10/12 09:39:33;;;;;;;8.27;6.00;;;12.30;77.60;;;;;;4912785;29;20036;-89
2021/10/12 09:42:05;;;;;;;7.78;5.20;;;12.30;77.60;;;;;;4912099;29;20036;-84
2021/10/12 09:44:32;;;;;;;8.63;6.07;;;12.30;77.40;;;;;;4912625;29;20059;-85
2021/10/12 09:47:13;;;;;;;7.57;4.90;;;12.30;77.30;;;;;;4895898;29;20266;-88
2021/10/12 09:49:39;;;;;;;11.77;5.43;;;12.30;77.30;;;;;;4912030;29;20062;-85
2021/10/12 09:52:14;;;;;;;7.57;5.38;;;12.40;77.50;;;;;;4910956;29;20182;-84
2021/10/12 09:54:52;;;;;;;14.00;7.07;;;12.40;77.50;;;;;;4896264;29;20044;-85
2021/10/12 09:57:20;;;;;;;9.77;5.43;;;12.40;77.40;;;;;;4892092;29;20035;-83
2021/10/12 09:59:46;;;;;;;8.65;5.00;;;12.50;77.50;;;;;;4910438;29;20477;-88
2021/10/12 10:02:23;;;;;;;9.15;5.30;;;12.50;77.50;;;;;;4910223;29;20044;-88
2021/10/12 10:04:51;;;;;;;6.00;4.97;;;12.50;77.50;;;;;;4878578;29;20040;-91
2021/10/12 10:07:24;;;;;;;8.52;4.97;;;12.60;77.60;;;;;;4906344;29;20068;-88
2021/10/12 10:09:54;;;;;;;6.68;4.68;;;12.60;77.50;;;;;;4913764;29;20070;-89
2021/10/12 10:12:20;;;;;;;9.27;4.75;;;12.70;77.60;;;;;;4910908;29;20104;-88
2021/10/12 10:14:47;;;;;;;7.60;4.50;;;12.70;77.50;;;;;;4892931;29;20052;-90
2021/10/12 10:17:13;;;;;;;9.65;5.35;;;12.80;77.60;;;;;;4893814;29;20039;-86
2021/10/12 10:19:45;;;;;;;9.63;4.75;;;12.80;77.60;;;;;;4894783;29;20123;-87
2021/10/12 10:22:34;;;;;;;7.80;4.73;;;12.90;77.70;;;;;;4912577;29;20036;-89
2021/10/12 10:25:00;;;;;;;6.70;4.13;;;12.90;77.60;;;;;;4890179;29;20029;-87
2021/10/12 10:27:34;;;;;;;6.93;4.25;;;13.00;77.70;;;;;;4893483;29;20436;-87
2021/10/12 10:30:31;;;;;;;9.15;4.95;;;13.00;77.60;;;;;;4877483;29;20131;-89
2021/10/12 10:33:08;;;;;;;8.48;4.57;;;13.10;77.80;;;;;;4896628;29;20071;-88
2021/10/12 10:35:42;;;;;;;9.98;4.78;;;13.10;77.60;;;;;;4915989;29;20040;-87
2021/10/12 10:38:21;;;;;;;5.43;4.07;;;13.10;77.50;;;;;;4899807;29;20071;-88
2021/10/12 10:41:11;;;;;;;7.93;4.28;;;13.20;77.60;;;;;;4916960;29;20506;-87
2021/10/12 10:43:49;;;;;;;6.80;4.28;;;13.20;77.60;;;;;;4916436;29;20444;-92
2021/10/12 10:46:32;;;;;;;5.75;3.58;;;13.30;77.70;;;;;;4920006;29;20132;-91
2021/10/12 10:49:24;;;;;;;6.10;3.58;;;13.40;77.70;;;;;;4890061;29;20115;-84
2021/10/12 10:51:55;;;;;;;6.82;3.70;;;13.40;77.60;;;;;;4916268;29;20038;-88
2021/10/12 10:54:43;;;;;;;9.77;4.15;;;13.50;77.60;;;;;;4867820;29;20045;-90
2021/10/12 10:57:14;;;;;;;4.90;3.28;;;13.60;77.70;;;;;;4902028;29;20036;-86
2021/10/12 10:59:40;;;;;;;9.80;3.63;;;13.60;77.60;;;;;;4897119;29;20044;-86
2021/10/12 11:02:25;;;;;;;5.85;3.85;;;13.70;77.70;;;;;;4901151;29;20065;-88
2021/10/12 11:04:52;;;;;;;12.13;4.30;;;13.80;77.80;;;;;;4880586;29;20028;-87
2021/10/12 11:07:19;;;;;;;9.52;3.58;;;13.80;77.80;;;;;;4898451;29;20039;-82
2021/10/12 11:09:47;;;;;;;8.20;3.80;;;13.80;77.90;;;;;;4911109;29;20028;-84
2021/10/12 11:12:23;;;;;;;7.25;3.65;;;14.00;78.30;;;;;;4880159;29;20059;-84
2021/10/12 11:14:51;;;;;;;11.77;4.40;;;14.10;78.30;;;;;;4914348;29;20051;-89
2021/10/12 11:17:18;;;;;;;13.35;3.17;;;14.10;78.20;;;;;;4915285;29;20164;-84
2021/10/12 11:20:11;;;;;;;6.35;3.72;;;14.20;78.20;;;;;;4914819;29;20079;-84
2021/10/12 11:22:42;;;;;;;6.97;3.40;;;14.30;78.20;;;;;;4910252;29;20411;-85
2021/10/12 11:25:09;;;;;;;5.05;2.80;;;14.40;78.20;;;;;;4885547;29;20066;-82
2021/10/12 11:27:46;;;;;;;7.63;4.32;;;14.40;78.20;;;;;;4913503;29;20036;-84
2021/10/12 11:30:14;;;;;;;6.82;2.80;;;14.50;78.20;;;;;;4895419;29;20028;-84
2021/10/12 11:32:41;;;;;;;6.70;3.40;;;14.50;78.10;;;;;;4895080;29;20480;-86
2021/10/12 11:35:10;;;;;;;7.60;2.75;;;14.50;78.00;;;;;;4894997;29;20206;-87
2021/10/12 11:37:50;;;;;;;6.35;3.15;;;14.60;78.10;;;;;;4878475;29;20032;-84
2021/10/12 11:40:17;;;;;;;5.68;2.88;;;14.60;78.10;;;;;;4895382;29;20056;-84
2021/10/12 11:42:44;;;;;;;7.78;2.97;;;14.70;78.20;;;;;;4894862;29;20033;-84
2021/10/12 11:45:11;;;;;;;8.15;3.60;;;14.70;78.10;;;;;;4895108;29;20036;-84
2021/10/12 11:47:38;;;;;;;6.97;3.10;;;14.80;78.30;;;;;;4878695;29;20036;-87
2021/10/12 11:50:12;;;;;;;6.13;3.60;;;14.80;78.30;;;;;;4878667;29;20044;-84
2021/10/12 11:52:41;;;;;;;9.63;3.72;;;14.90;78.40;;;;;;4899883;29;20020;-87
2021/10/12 11:55:09;;;;;;;8.05;3.30;;;15.00;78.50;;;;;;4908295;29;20040;-82
2021/10/12 11:57:37;;;;;;;7.03;2.80;;;15.00;78.40;;;;;;4906826;29;20392;-84
2021/10/12 12:00:05;;;;;;;11.43;4.35;;;15.00;78.40;;;;;;4881329;29;20160;-82
2021/10/12 12:02:38;;;;;;;6.57;2.55;;;15.00;78.30;;;;;;4893939;29;20080;-83
2021/10/12 12:05:04;;;;;;;5.68;2.47;;;15.00;78.10;;;;;;4905519;29;20484;-84
2021/10/12 12:07:37;;;;;;;4.55;2.25;;;15.00;77.80;;;;;;4913868;29;20067;-83
2021/10/12 12:10:03;;;;;;;4.55;2.33;;;15.10;77.50;;;;;;4877237;29;20048;-85
2021/10/12 12:12:30;;;;;;;5.75;1.85;;;15.10;77.30;;;;;;4901639;29;20028;-84
2021/10/12 12:14:56;;;;;;;11.63;3.47;;;15.10;77.00;;;;;;4900230;29;20070;-85
2021/10/12 12:17:24;;;;;;;5.82;1.77;;;15.20;76.90;;;;;;4893992;29;20032;-85
2021/10/12 12:20:10;;;;;;;2.83;1.90;;;15.30;76.80;;;;;;4895900;29;20040;-85
2021/10/12 12:22:40;;;;;;;14.18;2.60;;;15.40;77.20;;;;;;4880934;29;20095;-85
2021/10/12 12:25:15;;;;;;;6.20;1.45;;;15.60;76.50;;;;;;4912903;29;20049;-83
2021/10/12 12:27:56;;;;;;;5.57;1.38;;;15.80;76.30;;;;;;4910084;29;20024;-84
2021/10/12 12:30:35;;;;;;;3.17;1.25;;;16.00;76.00;;;;;;4877870;29;20496;-83
2021/10/12 12:33:02;;;;;;;4.07;1.75;;;16.10;75.50;;;;;;4893303;29;20037;-85
2021/10/12 12:35:55;;;;;;;3.75;1.30;;;16.20;75.30;;;;;;4896401;29;20044;-83
2021/10/12 12:38:30;;;;;;;6.00;1.77;;;16.30;74.90;;;;;;4896515;29;20028;-86
2021/10/12 12:40:56;;;;;;;3.90;1.45;;;16.30;74.60;;;;;;4914023;29;20476;-87
2021/10/12 12:43:29;;;;;;;1.83;1.15;;;16.40;74.50;;;;;;4903577;29;20461;-87
2021/10/12 12:46:16;;;;;;;3.63;1.42;;;16.50;74.40;;;;;;4895390;29;20084;-85
2021/10/12 12:48:46;;;;;;;3.90;1.35;;;16.50;74.00;;;;;;4876275;29;20123;-84
2021/10/12 12:51:14;;;;;;;4.28;1.52;;;16.60;73.80;;;;;;4892514;29;20033;-85
2021/10/12 12:53:44;;;;;;;2.72;1.00;;;16.70;73.50;;;;;;4893920;29;20499;-83
2021/10/12 12:56:13;;;;;;;6.03;1.98;;;16.70;73.10;;;;;;4908948;29;20041;-84